sensor_id;sensor_type;location;lat;lon;timestamp;temperature;humidity
16412;DHT22;8315;52.104;6.304;2022-11-13T00:01:26;8.40;98.40
16412;DHT22;8315;52.104;6.304;2022-11-13T00:04:12;8.40;98.40
16412;DHT22;8315;52.104;6.304;2022-11-13T00:06:57;8.40;98.40
16412;DHT22;8315;52.104;6.304;2022-11-13T00:09:43;8.40;98.40
16412;DHT22;8315;52.104;6.304;2022-11-13T00:12:29;8.30;98.40
16412;DHT22;8315;52.104;6.304;2022-11-13T00:15:15;8.30;98.40
16412;DHT22;8315;52.104;6.304;2022-11-13T00:18:00;8.30;98.40
16412;DHT22;8315;52.104;6.304;2022-11-13T00:20:46;8.20;98.40
16412;DHT22;8315;52.104;6.304;2022-11-13T00:23:32;8.10;98.40
16412;DHT22;8315;52.104;6.304;2022-11-13T00:26:18;8.10;98.40
16412;DHT22;8315;52.104;6.304;2022-11-13T00:29:07;8.20;98.40
16412;DHT22;8315;52.104;6.304;2022-11-13T00:31:52;8.10;98.40
16412;DHT22;8315;52.104;6.304;2022-11-13T00:34:37;8.10;98.40
16412;DHT22;8315;52.104;6.304;2022-11-13T00:37:22;8.20;98.40
16412;DHT22;8315;52.104;6.304;2022-11-13T00:40:08;8.20;98.40
16412;DHT22;8315;52.104;6.304;2022-11-13T00:42:54;8.30;98.40
16412;DHT22;8315;52.104;6.304;2022-11-13T00:45:40;8.20;98.40
16412;DHT22;8315;52.104;6.304;2022-11-13T00:48:26;8.20;98.40
16412;DHT22;8315;52.104;6.304;2022-11-13T00:51:11;8.10;98.40
16412;DHT22;8315;52.104;6.304;2022-11-13T00:53:56;8.10;98.40
16412;DHT22;8315;52.104;6.304;2022-11-13T00:56:42;7.90;98.40
16412;DHT22;8315;52.104;6.304;2022-11-13T00:59:27;7.90;98.40
16412;DHT22;8315;52.104;6.304;2022-11-13T01:02:13;7.90;98.40
16412;DHT22;8315;52.104;6.304;2022-11-13T01:04:59;7.90;98.40
16412;DHT22;8315;52.104;6.304;2022-11-13T01:07:44;7.90;98.40
16412;DHT22;8315;52.104;6.304;2022-11-13T01:10:30;8.00;98.40
16412;DHT22;8315;52.104;6.304;2022-11-13T01:13:15;8.00;98.40
16412;DHT22;8315;52.104;6.304;2022-11-13T01:16:03;8.00;98.40
16412;DHT22;8315;52.104;6.304;2022-11-13T01:18:51;8.00;98.40
16412;DHT22;8315;52.104;6.304;2022-11-13T01:21:38;8.00;98.40
16412;DHT22;8315;52.104;6.304;2022-11-13T01:24:23;8.00;98.40
16412;DHT22;8315;52.104;6.304;2022-11-13T01:27:08;7.90;98.40
16412;DHT22;8315;52.104;6.304;2022-11-13T01:29:56;7.80;98.40
16412;DHT22;8315;52.104;6.304;2022-11-13T01:32:41;7.70;98.40
16412;DHT22;8315;52.104;6.304;2022-11-13T01:35:27;7.50;98.40
16412;DHT22;8315;52.104;6.304;2022-11-13T01:38:13;7.60;98.40
16412;DHT22;8315;52.104;6.304;2022-11-13T01:40:58;7.70;98.40
16412;DHT22;8315;52.104;6.304;2022-11-13T01:43:44;7.60;98.40
16412;DHT22;8315;52.104;6.304;2022-11-13T01:46:30;7.60;98.40
16412;DHT22;8315;52.104;6.304;2022-11-13T01:49:23;7.70;98.40
16412;DHT22;8315;52.104;6.304;2022-11-13T01:52:13;7.70;98.40
16412;DHT22;8315;52.104;6.304;2022-11-13T01:55:03;7.60;98.40
16412;DHT22;8315;52.104;6.304;2022-11-13T01:57:49;7.60;98.40
16412;DHT22;8315;52.104;6.304;2022-11-13T02:00:35;7.70;98.40
16412;DHT22;8315;52.104;6.304;2022-11-13T02:03:21;7.60;98.40
16412;DHT22;8315;52.104;6.304;2022-11-13T02:06:06;7.60;98.40
16412;DHT22;8315;52.104;6.304;2022-11-13T02:08:54;7.60;98.40
16412;DHT22;8315;52.104;6.304;2022-11-13T02:11:40;7.50;98.40
16412;DHT22;8315;52.104;6.304;2022-11-13T02:14:27;7.60;98.40
16412;DHT22;8315;52.104;6.304;2022-11-13T02:17:14;7.60;98.40
16412;DHT22;8315;52.104;6.304;2022-11-13T02:20:03;7.70;98.40
16412;DHT22;8315;52.104;6.304;2022-11-13T02:22:50;7.70;98.40
16412;DHT22;8315;52.104;6.304;2022-11-13T02:25:41;7.80;98.40
16412;DHT22;8315;52.104;6.304;2022-11-13T02:28:27;7.80;98.40
16412;DHT22;8315;52.104;6.304;2022-11-13T02:31:12;7.80;98.40
16412;DHT22;8315;52.104;6.304;2022-11-13T02:33:59;7.80;98.40
16412;DHT22;8315;52.104;6.304;2022-11-13T02:36:45;7.80;98.40
16412;DHT22;8315;52.104;6.304;2022-11-13T02:39:31;7.90;98.40
16412;DHT22;8315;52.104;6.304;2022-11-13T02:42:18;7.80;98.40
16412;DHT22;8315;52.104;6.304;2022-11-13T02:45:04;7.90;98.40
16412;DHT22;8315;52.104;6.304;2022-11-13T02:47:50;7.90;98.40
16412;DHT22;8315;52.104;6.304;2022-11-13T02:50:36;8.00;98.40
16412;DHT22;8315;52.104;6.304;2022-11-13T02:53:22;8.00;98.40
16412;DHT22;8315;52.104;6.304;2022-11-13T02:56:07;8.00;98.40
16412;DHT22;8315;52.104;6.304;2022-11-13T02:58:54;8.00;98.40
16412;DHT22;8315;52.104;6.304;2022-11-13T03:01:40;8.10;98.40
16412;DHT22;8315;52.104;6.304;2022-11-13T03:04:25;8.10;98.40
16412;DHT22;8315;52.104;6.304;2022-11-13T03:07:10;8.10;98.40
16412;DHT22;8315;52.104;6.304;2022-11-13T03:09:56;8.20;98.40
16412;DHT22;8315;52.104;6.304;2022-11-13T03:12:41;8.20;98.40
16412;DHT22;8315;52.104;6.304;2022-11-13T03:15:28;8.10;98.40
16412;DHT22;8315;52.104;6.304;2022-11-13T03:18:13;8.10;98.40
16412;DHT22;8315;52.104;6.304;2022-11-13T03:21:04;8.10;98.40
16412;DHT22;8315;52.104;6.304;2022-11-13T03:23:50;8.10;98.40
16412;DHT22;8315;52.104;6.304;2022-11-13T03:26:37;8.00;98.40
16412;DHT22;8315;52.104;6.304;2022-11-13T03:29:23;8.10;98.40
16412;DHT22;8315;52.104;6.304;2022-11-13T03:32:09;8.00;98.40
16412;DHT22;8315;52.104;6.304;2022-11-13T03:34:55;8.10;98.40
16412;DHT22;8315;52.104;6.304;2022-11-13T03:37:40;8.10;98.40
16412;DHT22;8315;52.104;6.304;2022-11-13T03:40:25;8.10;98.40
16412;DHT22;8315;52.104;6.304;2022-11-13T03:43:11;8.00;98.40
16412;DHT22;8315;52.104;6.304;2022-11-13T03:45:56;8.00;98.40
16412;DHT22;8315;52.104;6.304;2022-11-13T03:48:43;7.80;98.40
16412;DHT22;8315;52.104;6.304;2022-11-13T03:51:28;7.80;98.40
16412;DHT22;8315;52.104;6.304;2022-11-13T03:54:13;7.70;98.40
16412;DHT22;8315;52.104;6.304;2022-11-13T03:56:59;7.90;98.40
16412;DHT22;8315;52.104;6.304;2022-11-13T03:59:44;7.90;98.40
16412;DHT22;8315;52.104;6.304;2022-11-13T04:02:30;7.90;98.40
16412;DHT22;8315;52.104;6.304;2022-11-13T04:05:16;7.80;98.40
16412;DHT22;8315;52.104;6.304;2022-11-13T04:08:02;7.90;98.40
16412;DHT22;8315;52.104;6.304;2022-11-13T04:10:47;7.80;98.40
16412;DHT22;8315;52.104;6.304;2022-11-13T04:13:33;7.70;98.40
16412;DHT22;8315;52.104;6.304;2022-11-13T04:16:18;7.60;98.40
16412;DHT22;8315;52.104;6.304;2022-11-13T04:19:03;7.60;98.40
16412;DHT22;8315;52.104;6.304;2022-11-13T04:21:50;7.50;98.40
16412;DHT22;8315;52.104;6.304;2022-11-13T04:24:35;7.40;98.40
16412;DHT22;8315;52.104;6.304;2022-11-13T04:27:21;7.40;98.40
16412;DHT22;8315;52.104;6.304;2022-11-13T04:30:06;7.40;98.40
16412;DHT22;8315;52.104;6.304;2022-11-13T04:32:53;7.30;98.40
16412;DHT22;8315;52.104;6.304;2022-11-13T04:35:38;7.40;98.40
16412;DHT22;8315;52.104;6.304;2022-11-13T04:38:32;7.30;98.40
16412;DHT22;8315;52.104;6.304;2022-11-13T04:41:18;7.30;98.40
16412;DHT22;8315;52.104;6.304;2022-11-13T04:44:22;7.40;98.40
16412;DHT22;8315;52.104;6.304;2022-11-13T04:47:07;7.40;98.40
16412;DHT22;8315;52.104;6.304;2022-11-13T04:49:52;7.30;98.40
16412;DHT22;8315;52.104;6.304;2022-11-13T04:52:38;7.20;98.40
16412;DHT22;8315;52.104;6.304;2022-11-13T04:55:24;7.20;98.40
16412;DHT22;8315;52.104;6.304;2022-11-13T04:58:10;7.20;98.40
16412;DHT22;8315;52.104;6.304;2022-11-13T05:00:55;7.20;98.40
16412;DHT22;8315;52.104;6.304;2022-11-13T05:03:40;7.30;98.40
16412;DHT22;8315;52.104;6.304;2022-11-13T05:06:26;7.40;98.40
16412;DHT22;8315;52.104;6.304;2022-11-13T05:09:11;7.40;98.40
16412;DHT22;8315;52.104;6.304;2022-11-13T05:11:58;7.30;98.40
16412;DHT22;8315;52.104;6.304;2022-11-13T05:14:43;7.40;98.40
16412;DHT22;8315;52.104;6.304;2022-11-13T05:17:29;7.30;98.40
16412;DHT22;8315;52.104;6.304;2022-11-13T05:20:14;7.30;98.40
16412;DHT22;8315;52.104;6.304;2022-11-13T05:23:00;7.20;98.40
16412;DHT22;8315;52.104;6.304;2022-11-13T05:25:45;7.20;98.40
16412;DHT22;8315;52.104;6.304;2022-11-13T05:28:32;7.20;98.40
16412;DHT22;8315;52.104;6.304;2022-11-13T05:31:18;7.10;98.40
16412;DHT22;8315;52.104;6.304;2022-11-13T05:34:03;7.00;98.40
16412;DHT22;8315;52.104;6.304;2022-11-13T05:36:48;7.00;98.40
16412;DHT22;8315;52.104;6.304;2022-11-13T05:39:34;6.90;98.40
16412;DHT22;8315;52.104;6.304;2022-11-13T05:42:19;6.80;98.40
16412;DHT22;8315;52.104;6.304;2022-11-13T05:45:06;6.80;98.40
16412;DHT22;8315;52.104;6.304;2022-11-13T05:47:52;6.80;98.40
16412;DHT22;8315;52.104;6.304;2022-11-13T05:50:38;6.80;98.40
16412;DHT22;8315;52.104;6.304;2022-11-13T05:53:23;6.90;98.40
16412;DHT22;8315;52.104;6.304;2022-11-13T05:56:09;6.80;98.40
16412;DHT22;8315;52.104;6.304;2022-11-13T05:58:56;6.80;98.40
16412;DHT22;8315;52.104;6.304;2022-11-13T06:01:44;6.80;98.40
16412;DHT22;8315;52.104;6.304;2022-11-13T06:04:29;6.70;98.40
16412;DHT22;8315;52.104;6.304;2022-11-13T06:07:14;6.70;98.40
16412;DHT22;8315;52.104;6.304;2022-11-13T06:10:00;6.60;98.40
16412;DHT22;8315;52.104;6.304;2022-11-13T06:12:45;6.60;98.40
16412;DHT22;8315;52.104;6.304;2022-11-13T06:15:30;6.60;98.40
16412;DHT22;8315;52.104;6.304;2022-11-13T06:18:20;6.50;98.40
16412;DHT22;8315;52.104;6.304;2022-11-13T06:21:07;6.30;98.40
16412;DHT22;8315;52.104;6.304;2022-11-13T06:23:53;6.30;98.40
16412;DHT22;8315;52.104;6.304;2022-11-13T06:26:39;6.30;98.40
16412;DHT22;8315;52.104;6.304;2022-11-13T06:29:24;6.30;98.40
16412;DHT22;8315;52.104;6.304;2022-11-13T06:32:09;6.20;98.40
16412;DHT22;8315;52.104;6.304;2022-11-13T06:34:56;6.20;98.40
16412;DHT22;8315;52.104;6.304;2022-11-13T06:37:42;6.10;98.40
16412;DHT22;8315;52.104;6.304;2022-11-13T06:40:28;6.10;98.40
16412;DHT22;8315;52.104;6.304;2022-11-13T06:43:13;6.00;98.40
16412;DHT22;8315;52.104;6.304;2022-11-13T06:46:02;6.00;98.40
16412;DHT22;8315;52.104;6.304;2022-11-13T06:48:48;6.00;98.40
16412;DHT22;8315;52.104;6.304;2022-11-13T06:51:35;5.90;98.40
16412;DHT22;8315;52.104;6.304;2022-11-13T06:54:20;5.80;98.40
16412;DHT22;8315;52.104;6.304;2022-11-13T06:57:06;5.70;98.40
16412;DHT22;8315;52.104;6.304;2022-11-13T06:59:51;5.60;98.40
16412;DHT22;8315;52.104;6.304;2022-11-13T07:02:37;5.60;98.40
16412;DHT22;8315;52.104;6.304;2022-11-13T07:05:22;5.60;98.40
16412;DHT22;8315;52.104;6.304;2022-11-13T07:08:09;5.70;98.40
16412;DHT22;8315;52.104;6.304;2022-11-13T07:10:55;5.70;98.40
16412;DHT22;8315;52.104;6.304;2022-11-13T07:13:41;5.70;98.40
16412;DHT22;8315;52.104;6.304;2022-11-13T07:16:26;5.70;98.40
16412;DHT22;8315;52.104;6.304;2022-11-13T07:19:12;5.60;98.40
16412;DHT22;8315;52.104;6.304;2022-11-13T07:21:57;5.50;98.40
16412;DHT22;8315;52.104;6.304;2022-11-13T07:24:44;5.50;98.40
16412;DHT22;8315;52.104;6.304;2022-11-13T07:27:29;5.50;98.40
16412;DHT22;8315;52.104;6.304;2022-11-13T07:30:15;5.60;98.40
16412;DHT22;8315;52.104;6.304;2022-11-13T07:33:01;5.70;98.40
16412;DHT22;8315;52.104;6.304;2022-11-13T07:35:46;5.70;98.40
16412;DHT22;8315;52.104;6.304;2022-11-13T07:38:32;5.70;98.40
16412;DHT22;8315;52.104;6.304;2022-11-13T07:41:19;5.70;98.40
16412;DHT22;8315;52.104;6.304;2022-11-13T07:44:05;5.70;98.40
16412;DHT22;8315;52.104;6.304;2022-11-13T07:46:50;5.70;98.40
16412;DHT22;8315;52.104;6.304;2022-11-13T07:49:35;5.70;98.40
16412;DHT22;8315;52.104;6.304;2022-11-13T07:52:21;5.70;98.40
16412;DHT22;8315;52.104;6.304;2022-11-13T07:55:06;5.80;98.40
16412;DHT22;8315;52.104;6.304;2022-11-13T07:57:55;5.80;98.40
16412;DHT22;8315;52.104;6.304;2022-11-13T08:00:41;5.80;98.40
16412;DHT22;8315;52.104;6.304;2022-11-13T08:03:27;5.90;98.40
16412;DHT22;8315;52.104;6.304;2022-11-13T08:06:12;5.90;98.40
16412;DHT22;8315;52.104;6.304;2022-11-13T08:08:57;5.90;98.40
16412;DHT22;8315;52.104;6.304;2022-11-13T08:11:42;6.00;98.40
16412;DHT22;8315;52.104;6.304;2022-11-13T08:14:29;6.00;98.40
16412;DHT22;8315;52.104;6.304;2022-11-13T08:17:14;6.10;98.40
16412;DHT22;8315;52.104;6.304;2022-11-13T08:20:00;6.10;98.40
16412;DHT22;8315;52.104;6.304;2022-11-13T08:22:46;6.20;98.40
16412;DHT22;8315;52.104;6.304;2022-11-13T08:25:32;6.30;98.40
16412;DHT22;8315;52.104;6.304;2022-11-13T08:28:17;6.40;98.40
16412;DHT22;8315;52.104;6.304;2022-11-13T08:31:08;6.50;98.40
16412;DHT22;8315;52.104;6.304;2022-11-13T08:33:53;6.60;98.40
16412;DHT22;8315;52.104;6.304;2022-11-13T08:36:39;6.80;98.40
16412;DHT22;8315;52.104;6.304;2022-11-13T08:39:25;6.90;98.40
16412;DHT22;8315;52.104;6.304;2022-11-13T08:42:10;7.00;98.40
16412;DHT22;8315;52.104;6.304;2022-11-13T08:44:56;7.10;98.40
16412;DHT22;8315;52.104;6.304;2022-11-13T08:47:43;7.20;98.40
16412;DHT22;8315;52.104;6.304;2022-11-13T08:50:29;7.30;98.40
16412;DHT22;8315;52.104;6.304;2022-11-13T08:53:15;7.50;98.40
16412;DHT22;8315;52.104;6.304;2022-11-13T08:56:01;7.70;98.40
16412;DHT22;8315;52.104;6.304;2022-11-13T08:58:47;7.80;98.40
16412;DHT22;8315;52.104;6.304;2022-11-13T09:01:33;8.00;98.40
16412;DHT22;8315;52.104;6.304;2022-11-13T09:04:19;8.10;98.40
16412;DHT22;8315;52.104;6.304;2022-11-13T09:07:05;8.30;98.40
16412;DHT22;8315;52.104;6.304;2022-11-13T09:09:50;8.40;98.40
16412;DHT22;8315;52.104;6.304;2022-11-13T09:12:35;8.60;98.40
16412;DHT22;8315;52.104;6.304;2022-11-13T09:15:21;8.70;98.40
16412;DHT22;8315;52.104;6.304;2022-11-13T09:18:07;8.90;98.40
16412;DHT22;8315;52.104;6.304;2022-11-13T09:20:59;9.00;98.40
16412;DHT22;8315;52.104;6.304;2022-11-13T09:23:44;9.10;98.40
16412;DHT22;8315;52.104;6.304;2022-11-13T09:26:30;9.20;98.40
16412;DHT22;8315;52.104;6.304;2022-11-13T09:29:15;9.30;98.40
16412;DHT22;8315;52.104;6.304;2022-11-13T09:32:01;9.30;98.40
16412;DHT22;8315;52.104;6.304;2022-11-13T09:34:46;9.40;98.40
16412;DHT22;8315;52.104;6.304;2022-11-13T09:37:33;9.50;98.40
16412;DHT22;8315;52.104;6.304;2022-11-13T09:40:31;9.70;98.40
16412;DHT22;8315;52.104;6.304;2022-11-13T09:43:24;9.70;98.40
16412;DHT22;8315;52.104;6.304;2022-11-13T09:46:15;9.80;98.40
16412;DHT22;8315;52.104;6.304;2022-11-13T09:49:05;9.90;98.40
16412;DHT22;8315;52.104;6.304;2022-11-13T09:51:58;10.10;98.40
16412;DHT22;8315;52.104;6.304;2022-11-13T09:54:47;10.20;98.40
16412;DHT22;8315;52.104;6.304;2022-11-13T09:57:34;10.30;98.40
16412;DHT22;8315;52.104;6.304;2022-11-13T10:00:22;10.50;98.40
16412;DHT22;8315;52.104;6.304;2022-11-13T10:03:12;10.60;98.40
16412;DHT22;8315;52.104;6.304;2022-11-13T10:06:09;10.60;98.40
16412;DHT22;8315;52.104;6.304;2022-11-13T10:08:59;10.70;98.40
16412;DHT22;8315;52.104;6.304;2022-11-13T10:11:48;10.80;98.40
16412;DHT22;8315;52.104;6.304;2022-11-13T10:14:38;10.90;98.40
16412;DHT22;8315;52.104;6.304;2022-11-13T10:17:30;11.00;98.40
16412;DHT22;8315;52.104;6.304;2022-11-13T10:20:20;11.10;98.40
16412;DHT22;8315;52.104;6.304;2022-11-13T10:23:07;11.20;98.40
16412;DHT22;8315;52.104;6.304;2022-11-13T10:25:59;11.30;98.40
16412;DHT22;8315;52.104;6.304;2022-11-13T10:28:50;11.40;98.40
16412;DHT22;8315;52.104;6.304;2022-11-13T10:31:43;11.50;98.40
16412;DHT22;8315;52.104;6.304;2022-11-13T10:34:30;11.50;98.40
16412;DHT22;8315;52.104;6.304;2022-11-13T10:37:20;11.60;98.40
16412;DHT22;8315;52.104;6.304;2022-11-13T10:40:11;11.70;98.40
16412;DHT22;8315;52.104;6.304;2022-11-13T10:43:12;11.80;98.40
16412;DHT22;8315;52.104;6.304;2022-11-13T10:46:01;12.00;98.40
16412;DHT22;8315;52.104;6.304;2022-11-13T10:48:47;12.20;98.40
16412;DHT22;8315;52.104;6.304;2022-11-13T10:51:33;12.40;98.40
16412;DHT22;8315;52.104;6.304;2022-11-13T10:54:20;12.50;98.40
16412;DHT22;8315;52.104;6.304;2022-11-13T10:57:16;12.70;98.40
16412;DHT22;8315;52.104;6.304;2022-11-13T11:00:20;12.80;98.40
16412;DHT22;8315;52.104;6.304;2022-11-13T11:03:11;12.90;98.40
16412;DHT22;8315;52.104;6.304;2022-11-13T11:05:58;13.10;98.40
16412;DHT22;8315;52.104;6.304;2022-11-13T11:08:45;13.20;98.40
16412;DHT22;8315;52.104;6.304;2022-11-13T11:11:31;13.40;98.30
16412;DHT22;8315;52.104;6.304;2022-11-13T11:14:36;13.50;98.00
16412;DHT22;8315;52.104;6.304;2022-11-13T11:17:24;13.60;97.90
16412;DHT22;8315;52.104;6.304;2022-11-13T11:20:18;13.70;98.30
16412;DHT22;8315;52.104;6.304;2022-11-13T11:23:12;13.80;97.90
16412;DHT22;8315;52.104;6.304;2022-11-13T11:26:02;13.90;98.00
16412;DHT22;8315;52.104;6.304;2022-11-13T11:28:52;14.00;98.10
16412;DHT22;8315;52.104;6.304;2022-11-13T11:31:48;14.10;97.80
16412;DHT22;8315;52.104;6.304;2022-11-13T11:34:37;14.20;97.90
16412;DHT22;8315;52.104;6.304;2022-11-13T11:37:27;14.40;98.20
16412;DHT22;8315;52.104;6.304;2022-11-13T11:40:17;14.50;97.70
16412;DHT22;8315;52.104;6.304;2022-11-13T11:43:06;14.60;98.00
16412;DHT22;8315;52.104;6.304;2022-11-13T11:45:57;14.70;97.00
16412;DHT22;8315;52.104;6.304;2022-11-13T11:48:42;14.80;96.70
16412;DHT22;8315;52.104;6.304;2022-11-13T11:51:29;14.90;96.70
16412;DHT22;8315;52.104;6.304;2022-11-13T11:54:20;15.10;97.50
16412;DHT22;8315;52.104;6.304;2022-11-13T11:57:14;15.20;96.30
16412;DHT22;8315;52.104;6.304;2022-11-13T12:00:10;15.30;95.30
16412;DHT22;8315;52.104;6.304;2022-11-13T12:06:13;15.50;95.20
16412;DHT22;8315;52.104;6.304;2022-11-13T12:09:06;15.60;94.80
16412;DHT22;8315;52.104;6.304;2022-11-13T12:12:00;15.70;94.60
16412;DHT22;8315;52.104;6.304;2022-11-13T12:14:51;15.80;95.50
16412;DHT22;8315;52.104;6.304;2022-11-13T12:17:56;15.90;94.90
16412;DHT22;8315;52.104;6.304;2022-11-13T12:20:59;16.10;94.70
16412;DHT22;8315;52.104;6.304;2022-11-13T12:27:03;16.50;93.50
16412;DHT22;8315;52.104;6.304;2022-11-13T12:30:01;16.70;93.00
16412;DHT22;8315;52.104;6.304;2022-11-13T12:33:00;16.90;92.90
16412;DHT22;8315;52.104;6.304;2022-11-13T12:35:50;17.00;91.30
16412;DHT22;8315;52.104;6.304;2022-11-13T12:38:38;17.20;91.30
16412;DHT22;8315;52.104;6.304;2022-11-13T12:41:30;17.40;90.50
16412;DHT22;8315;52.104;6.304;2022-11-13T12:44:20;17.70;90.50
16412;DHT22;8315;52.104;6.304;2022-11-13T12:47:07;18.00;90.40
16412;DHT22;8315;52.104;6.304;2022-11-13T12:49:59;18.00;88.10
16412;DHT22;8315;52.104;6.304;2022-11-13T12:52:56;18.00;86.60
16412;DHT22;8315;52.104;6.304;2022-11-13T12:55:53;18.10;86.50
16412;DHT22;8315;52.104;6.304;2022-11-13T12:58:53;18.20;86.80
16412;DHT22;8315;52.104;6.304;2022-11-13T13:01:43;18.30;85.20
16412;DHT22;8315;52.104;6.304;2022-11-13T13:04:39;18.60;85.30
16412;DHT22;8315;52.104;6.304;2022-11-13T13:07:35;18.80;84.70
16412;DHT22;8315;52.104;6.304;2022-11-13T13:10:30;18.70;84.70
16412;DHT22;8315;52.104;6.304;2022-11-13T13:13:20;18.90;84.70
16412;DHT22;8315;52.104;6.304;2022-11-13T13:16:09;19.10;83.80
16412;DHT22;8315;52.104;6.304;2022-11-13T13:19:06;19.10;84.60
16412;DHT22;8315;52.104;6.304;2022-11-13T13:21:52;19.10;84.70
16412;DHT22;8315;52.104;6.304;2022-11-13T13:24:38;19.10;85.00
16412;DHT22;8315;52.104;6.304;2022-11-13T13:27:24;19.10;84.70
16412;DHT22;8315;52.104;6.304;2022-11-13T13:30:15;19.10;84.30
16412;DHT22;8315;52.104;6.304;2022-11-13T13:33:06;19.00;84.90
16412;DHT22;8315;52.104;6.304;2022-11-13T13:36:05;18.90;85.40
16412;DHT22;8315;52.104;6.304;2022-11-13T13:38:56;18.90;86.00
16412;DHT22;8315;52.104;6.304;2022-11-13T13:41:50;19.00;85.60
16412;DHT22;8315;52.104;6.304;2022-11-13T13:44:47;19.10;86.20
16412;DHT22;8315;52.104;6.304;2022-11-13T13:47:41;19.30;86.10
16412;DHT22;8315;52.104;6.304;2022-11-13T13:50:29;19.20;86.00
16412;DHT22;8315;52.104;6.304;2022-11-13T13:53:19;19.40;85.30
16412;DHT22;8315;52.104;6.304;2022-11-13T13:56:08;19.40;84.40
16412;DHT22;8315;52.104;6.304;2022-11-13T13:58:54;19.40;84.90
16412;DHT22;8315;52.104;6.304;2022-11-13T14:01:40;19.30;85.60
16412;DHT22;8315;52.104;6.304;2022-11-13T14:04:26;19.50;86.00
16412;DHT22;8315;52.104;6.304;2022-11-13T14:07:19;19.50;85.40
16412;DHT22;8315;52.104;6.304;2022-11-13T14:10:13;19.30;86.10
16412;DHT22;8315;52.104;6.304;2022-11-13T14:12:59;19.20;85.10
16412;DHT22;8315;52.104;6.304;2022-11-13T14:15:45;19.30;86.00
16412;DHT22;8315;52.104;6.304;2022-11-13T14:18:30;19.30;86.00
16412;DHT22;8315;52.104;6.304;2022-11-13T14:21:18;19.10;85.70
16412;DHT22;8315;52.104;6.304;2022-11-13T14:24:07;18.80;85.90
16412;DHT22;8315;52.104;6.304;2022-11-13T14:26:54;18.80;86.10
16412;DHT22;8315;52.104;6.304;2022-11-13T14:29:43;18.80;86.00
16412;DHT22;8315;52.104;6.304;2022-11-13T14:32:31;18.90;85.50
16412;DHT22;8315;52.104;6.304;2022-11-13T14:35:18;18.80;85.60
16412;DHT22;8315;52.104;6.304;2022-11-13T14:38:09;18.70;85.80
16412;DHT22;8315;52.104;6.304;2022-11-13T14:41:02;18.70;85.60
16412;DHT22;8315;52.104;6.304;2022-11-13T14:43:50;18.80;85.50
16412;DHT22;8315;52.104;6.304;2022-11-13T14:46:37;18.80;85.80
16412;DHT22;8315;52.104;6.304;2022-11-13T14:49:27;18.90;85.90
16412;DHT22;8315;52.104;6.304;2022-11-13T14:52:21;18.80;85.80
16412;DHT22;8315;52.104;6.304;2022-11-13T14:55:19;18.70;86.00
16412;DHT22;8315;52.104;6.304;2022-11-13T14:58:05;18.50;86.00
16412;DHT22;8315;52.104;6.304;2022-11-13T15:00:51;18.50;85.70
16412;DHT22;8315;52.104;6.304;2022-11-13T15:03:37;18.30;86.10
16412;DHT22;8315;52.104;6.304;2022-11-13T15:06:23;18.10;86.60
16412;DHT22;8315;52.104;6.304;2022-11-13T15:09:11;18.00;87.10
16412;DHT22;8315;52.104;6.304;2022-11-13T15:11:58;18.00;87.10
16412;DHT22;8315;52.104;6.304;2022-11-13T15:14:43;17.90;87.20
16412;DHT22;8315;52.104;6.304;2022-11-13T15:17:30;17.80;87.60
16412;DHT22;8315;52.104;6.304;2022-11-13T15:20:16;17.70;88.50
16412;DHT22;8315;52.104;6.304;2022-11-13T15:23:02;17.50;89.10
16412;DHT22;8315;52.104;6.304;2022-11-13T15:25:48;17.20;90.00
16412;DHT22;8315;52.104;6.304;2022-11-13T15:28:33;17.00;91.40
16412;DHT22;8315;52.104;6.304;2022-11-13T15:31:19;16.70;92.40
16412;DHT22;8315;52.104;6.304;2022-11-13T15:34:09;16.50;93.10
16412;DHT22;8315;52.104;6.304;2022-11-13T15:36:55;16.40;93.90
16412;DHT22;8315;52.104;6.304;2022-11-13T15:39:40;16.20;93.90
16412;DHT22;8315;52.104;6.304;2022-11-13T15:42:27;16.10;94.30
16412;DHT22;8315;52.104;6.304;2022-11-13T15:45:15;15.90;94.60
16412;DHT22;8315;52.104;6.304;2022-11-13T15:48:01;15.60;94.80
16412;DHT22;8315;52.104;6.304;2022-11-13T15:50:47;15.60;95.20
16412;DHT22;8315;52.104;6.304;2022-11-13T15:53:33;15.40;95.90
16412;DHT22;8315;52.104;6.304;2022-11-13T15:56:18;15.40;96.30
16412;DHT22;8315;52.104;6.304;2022-11-13T15:59:04;15.20;96.70
16412;DHT22;8315;52.104;6.304;2022-11-13T16:01:49;15.00;97.50
16412;DHT22;8315;52.104;6.304;2022-11-13T16:04:35;14.90;97.70
16412;DHT22;8315;52.104;6.304;2022-11-13T16:07:25;14.70;98.30
16412;DHT22;8315;52.104;6.304;2022-11-13T16:10:12;14.60;98.40
16412;DHT22;8315;52.104;6.304;2022-11-13T16:12:58;14.60;98.40
16412;DHT22;8315;52.104;6.304;2022-11-13T16:15:43;14.50;98.40
16412;DHT22;8315;52.104;6.304;2022-11-13T16:18:30;14.40;98.40
16412;DHT22;8315;52.104;6.304;2022-11-13T16:21:15;14.20;98.40
16412;DHT22;8315;52.104;6.304;2022-11-13T16:24:03;14.00;98.40
16412;DHT22;8315;52.104;6.304;2022-11-13T16:26:50;13.90;98.40
16412;DHT22;8315;52.104;6.304;2022-11-13T16:29:38;13.90;98.40
16412;DHT22;8315;52.104;6.304;2022-11-13T16:32:24;13.90;98.40
16412;DHT22;8315;52.104;6.304;2022-11-13T16:35:10;13.80;98.40
16412;DHT22;8315;52.104;6.304;2022-11-13T16:37:57;13.80;98.40
16412;DHT22;8315;52.104;6.304;2022-11-13T16:40:44;13.50;98.40
16412;DHT22;8315;52.104;6.304;2022-11-13T16:43:29;13.30;98.40
16412;DHT22;8315;52.104;6.304;2022-11-13T16:46:17;13.20;98.40
16412;DHT22;8315;52.104;6.304;2022-11-13T16:49:04;13.20;98.40
16412;DHT22;8315;52.104;6.304;2022-11-13T16:51:49;13.00;98.40
16412;DHT22;8315;52.104;6.304;2022-11-13T16:54:36;13.00;98.40
16412;DHT22;8315;52.104;6.304;2022-11-13T16:57:22;12.80;98.40
16412;DHT22;8315;52.104;6.304;2022-11-13T17:00:10;12.80;98.40
16412;DHT22;8315;52.104;6.304;2022-11-13T17:02:58;12.60;98.40
16412;DHT22;8315;52.104;6.304;2022-11-13T17:05:43;12.70;98.40
16412;DHT22;8315;52.104;6.304;2022-11-13T17:08:28;12.50;98.40
16412;DHT22;8315;52.104;6.304;2022-11-13T17:11:14;12.40;98.40
16412;DHT22;8315;52.104;6.304;2022-11-13T17:14:01;12.30;98.40
16412;DHT22;8315;52.104;6.304;2022-11-13T17:16:47;12.20;98.40
16412;DHT22;8315;52.104;6.304;2022-11-13T17:19:34;12.20;98.40
16412;DHT22;8315;52.104;6.304;2022-11-13T17:22:26;12.30;98.40
16412;DHT22;8315;52.104;6.304;2022-11-13T17:25:12;12.40;98.40
16412;DHT22;8315;52.104;6.304;2022-11-13T17:27:58;12.40;98.40
16412;DHT22;8315;52.104;6.304;2022-11-13T17:30:45;12.10;98.40
16412;DHT22;8315;52.104;6.304;2022-11-13T17:33:31;12.00;98.40
16412;DHT22;8315;52.104;6.304;2022-11-13T17:36:17;12.10;98.40
16412;DHT22;8315;52.104;6.304;2022-11-13T17:39:02;12.10;98.40
16412;DHT22;8315;52.104;6.304;2022-11-13T17:41:48;12.00;98.40
16412;DHT22;8315;52.104;6.304;2022-11-13T17:44:34;11.70;98.40
16412;DHT22;8315;52.104;6.304;2022-11-13T17:47:21;11.60;98.40
16412;DHT22;8315;52.104;6.304;2022-11-13T17:50:06;11.60;98.40
16412;DHT22;8315;52.104;6.304;2022-11-13T17:52:52;11.60;98.40
16412;DHT22;8315;52.104;6.304;2022-11-13T17:55:38;11.50;98.40
16412;DHT22;8315;52.104;6.304;2022-11-13T17:58:23;11.40;98.40
16412;DHT22;8315;52.104;6.304;2022-11-13T18:01:09;11.40;98.40
16412;DHT22;8315;52.104;6.304;2022-11-13T18:03:57;11.40;98.40
16412;DHT22;8315;52.104;6.304;2022-11-13T18:06:43;11.40;98.40
16412;DHT22;8315;52.104;6.304;2022-11-13T18:09:28;11.40;98.40
16412;DHT22;8315;52.104;6.304;2022-11-13T18:12:13;11.30;98.40